Time;durP1;ratioP1;P1;durP2;ratioP2;P2;SDS_P1;SDS_P2;PMS_P1;PMS_P2;Temp;Humidity;BMP_temperature;BMP_pressure;BME280_temperature;BME280_humidity;BME280_pressure;Samples;Min_cycle;Max_cycle;Signal;HPM_P1;HPM_P2
2021/10/14 00:00:36;;;;;;;7.35;2.95;;;8.20;99.90;;;;;;4974197;28;20038;-77
2021/10/14 00:03:07;;;;;;;6.90;3.30;;;8.10;99.90;;;;;;4989733;28;20031;-77
2021/10/14 00:05:33;;;;;;;5.47;3.15;;;8.10;99.90;;;;;;4974849;28;20054;-77
2021/10/14 00:08:00;;;;;;;5.32;2.72;;;8.10;99.90;;;;;;4973257;28;20023;-78
2021/10/14 00:10:26;;;;;;;5.55;3.15;;;8.10;99.90;;;;;;4974761;28;20035;-77
2021/10/14 00:12:52;;;;;;;6.05;2.70;;;8.10;99.90;;;;;;4973188;28;20027;-80
2021/10/14 00:15:18;;;;;;;7.15;2.90;;;8.10;99.90;;;;;;4973638;28;20427;-77
2021/10/14 00:17:44;;;;;;;5.30;2.50;;;8.10;99.90;;;;;;4972374;28;20245;-78
2021/10/14 00:20:10;;;;;;;6.57;3.17;;;8.10;99.90;;;;;;4972824;28;20473;-77
2021/10/14 00:22:36;;;;;;;5.95;2.78;;;8.10;99.90;;;;;;4974102;28;20050;-78
2021/10/14 00:25:02;;;;;;;6.93;3.38;;;8.10;99.90;;;;;;4973545;28;20395;-78
2021/10/14 00:27:28;;;;;;;4.85;2.83;;;8.00;99.90;;;;;;4978379;28;20034;-78
2021/10/14 00:29:54;;;;;;;4.53;2.97;;;8.00;99.90;;;;;;4976494;28;20031;-81
2021/10/14 00:32:20;;;;;;;5.78;2.97;;;7.90;99.90;;;;;;4961554;28;20031;-78
2021/10/14 00:34:45;;;;;;;3.70;2.50;;;7.90;99.80;;;;;;4977223;28;20035;-77
2021/10/14 00:37:11;;;;;;;4.90;2.58;;;7.90;99.80;;;;;;4960789;28;20031;-78
2021/10/14 00:39:37;;;;;;;5.80;2.45;;;8.00;99.80;;;;;;4977421;28;20035;-78
2021/10/14 00:42:02;;;;;;;5.20;2.25;;;8.00;99.70;;;;;;4976209;28;20129;-78
2021/10/14 00:44:41;;;;;;;6.13;2.50;;;8.00;99.70;;;;;;4977350;28;20027;-78
2021/10/14 00:47:07;;;;;;;4.25;2.50;;;8.00;99.70;;;;;;4973093;28;20084;-79
2021/10/14 00:49:32;;;;;;;5.38;2.63;;;8.10;99.80;;;;;;4957628;29;20054;-79
2021/10/14 00:51:58;;;;;;;5.22;2.50;;;8.00;99.80;;;;;;4940698;29;20027;-78
2021/10/14 00:54:24;;;;;;;6.80;2.53;;;8.00;99.80;;;;;;4957661;29;20035;-78
2021/10/14 00:56:49;;;;;;;3.35;2.30;;;8.00;99.90;;;;;;4958037;28;20024;-78
2021/10/14 00:59:15;;;;;;;6.15;2.90;;;8.00;99.90;;;;;;4956272;29;20112;-79
2021/10/14 01:01:41;;;;;;;4.70;2.97;;;8.00;99.90;;;;;;4957858;28;20028;-78
2021/10/14 01:04:06;;;;;;;5.80;2.53;;;8.00;99.90;;;;;;4956808;29;20042;-77
2021/10/14 01:06:32;;;;;;;5.15;2.17;;;8.00;99.90;;;;;;4972682;28;20047;-76
2021/10/14 01:08:58;;;;;;;5.32;2.42;;;8.10;99.80;;;;;;4975687;28;20392;-78
2021/10/14 01:11:25;;;;;;;4.15;2.38;;;8.00;99.70;;;;;;4976843;28;20497;-77
2021/10/14 01:13:50;;;;;;;3.50;2.00;;;8.00;99.60;;;;;;4977181;28;20114;-77
2021/10/14 01:16:16;;;;;;;4.03;2.33;;;8.00;99.60;;;;;;4976247;28;20620;-77
2021/10/14 01:18:42;;;;;;;5.20;2.55;;;8.00;99.50;;;;;;4976257;28;20023;-77
2021/10/14 01:21:08;;;;;;;4.85;2.50;;;8.00;99.40;;;;;;4976150;28;20392;-77
2021/10/14 01:23:34;;;;;;;4.25;2.20;;;8.00;99.50;;;;;;4977584;28;20030;-78
2021/10/14 01:25:59;;;;;;;3.75;2.08;;;8.00;99.50;;;;;;4975483;28;20498;-78
2021/10/14 01:28:25;;;;;;;4.30;2.40;;;8.00;99.40;;;;;;4991753;28;20022;-79
2021/10/14 01:30:51;;;;;;;4.72;2.17;;;8.00;99.40;;;;;;4995475;28;20035;-78
2021/10/14 01:33:17;;;;;;;4.38;1.90;;;8.00;99.30;;;;;;4995296;28;20053;-77
2021/10/14 01:35:44;;;;;;;2.88;1.80;;;7.90;99.30;;;;;;4996680;28;20027;-78
2021/10/14 01:38:09;;;;;;;6.10;1.92;;;7.90;99.30;;;;;;4993440;28;20030;-79
2021/10/14 01:40:35;;;;;;;5.72;2.05;;;7.90;99.30;;;;;;4995558;28;20038;-78
2021/10/14 01:43:01;;;;;;;5.25;1.98;;;7.90;99.30;;;;;;4994987;28;20022;-79
2021/10/14 01:45:26;;;;;;;3.35;1.67;;;7.90;99.20;;;;;;4995740;28;20034;-78
2021/10/14 01:47:52;;;;;;;3.05;1.90;;;7.80;99.30;;;;;;4995491;28;20033;-78
2021/10/14 01:50:18;;;;;;;5.07;2.47;;;7.80;99.30;;;;;;4995136;28;20026;-79
2021/10/14 01:52:43;;;;;;;6.35;2.20;;;7.70;99.30;;;;;;4980943;28;20050;-78
2021/10/14 01:55:09;;;;;;;6.40;2.03;;;7.70;99.40;;;;;;4975566;28;20038;-78
2021/10/14 01:57:35;;;;;;;4.45;2.38;;;7.70;99.50;;;;;;4987703;28;20031;-78
2021/10/14 02:00:00;;;;;;;4.90;2.22;;;7.60;99.40;;;;;;4995094;28;20038;-78
2021/10/14 02:02:26;;;;;;;4.45;2.65;;;7.60;99.50;;;;;;4994951;28;20034;-77
2021/10/14 02:04:51;;;;;;;4.03;2.65;;;7.60;99.60;;;;;;4991615;28;20392;-77
2021/10/14 02:07:17;;;;;;;5.60;2.67;;;7.60;99.70;;;;;;4975185;28;20026;-77
2021/10/14 02:09:43;;;;;;;4.57;2.60;;;7.50;99.80;;;;;;4975868;28;20113;-77
2021/10/14 02:12:08;;;;;;;4.32;2.60;;;7.60;99.90;;;;;;4975454;28;20037;-77
2021/10/14 02:14:34;;;;;;;4.72;2.53;;;7.60;99.80;;;;;;4976317;28;20033;-77
2021/10/14 02:17:00;;;;;;;4.47;2.60;;;7.60;99.70;;;;;;4993062;28;20022;-81
2021/10/14 02:19:25;;;;;;;5.68;2.55;;;7.50;99.60;;;;;;4994148;28;20439;-77
2021/10/14 02:21:51;;;;;;;5.15;2.53;;;7.60;99.60;;;;;;4995291;28;20022;-77
2021/10/14 02:24:17;;;;;;;5.28;2.60;;;7.50;99.70;;;;;;4994161;28;20026;-79
2021/10/14 02:26:42;;;;;;;3.88;2.25;;;7.50;99.80;;;;;;4994379;28;20447;-78
2021/10/14 02:29:12;;;;;;;5.28;2.75;;;7.50;99.80;;;;;;4994316;28;20030;-79
2021/10/14 02:31:39;;;;;;;4.38;2.33;;;7.50;99.70;;;;;;4995299;28;20081;-78
2021/10/14 02:34:05;;;;;;;7.10;2.72;;;7.50;99.70;;;;;;4994090;28;20038;-78
2021/10/14 02:36:31;;;;;;;5.03;3.17;;;7.50;99.80;;;;;;4982217;28;20026;-78
2021/10/14 02:38:57;;;;;;;5.05;2.55;;;7.50;99.70;;;;;;4975039;28;20096;-78
2021/10/14 02:41:22;;;;;;;6.18;2.30;;;7.40;99.90;;;;;;4974890;28;20031;-78
2021/10/14 02:43:48;;;;;;;4.75;2.33;;;7.40;99.70;;;;;;4975417;28;20034;-78
2021/10/14 02:46:14;;;;;;;4.20;2.40;;;7.50;99.70;;;;;;4983882;28;20424;-78
2021/10/14 02:48:39;;;;;;;5.35;2.55;;;7.50;99.70;;;;;;4994152;28;20037;-77
2021/10/14 02:51:05;;;;;;;8.40;3.20;;;7.50;99.60;;;;;;4993920;28;20415;-78
2021/10/14 02:53:30;;;;;;;7.05;2.83;;;7.60;99.50;;;;;;4993786;28;20030;-77
2021/10/14 02:55:56;;;;;;;4.30;2.40;;;7.60;99.60;;;;;;4992453;28;20081;-77
2021/10/14 02:58:22;;;;;;;6.13;3.05;;;7.60;99.60;;;;;;4974965;28;20027;-77
2021/10/14 03:00:47;;;;;;;6.78;2.97;;;7.60;99.60;;;;;;4973739;28;20051;-77
2021/10/14 03:03:13;;;;;;;8.55;2.88;;;7.50;99.70;;;;;;4974093;28;20129;-76
2021/10/14 03:05:38;;;;;;;7.25;2.83;;;7.60;99.70;;;;;;4973817;28;20054;-75
2021/10/14 03:08:04;;;;;;;11.52;3.30;;;7.50;99.60;;;;;;4973854;28;20038;-78
2021/10/14 03:10:30;;;;;;;9.82;3.10;;;7.50;99.80;;;;;;4974614;28;20435;-78
2021/10/14 03:12:56;;;;;;;10.32;3.10;;;7.50;99.80;;;;;;4974702;28;20037;-78
2021/10/14 03:15:21;;;;;;;6.50;2.90;;;7.50;99.80;;;;;;4985850;28;20490;-78
2021/10/14 03:17:47;;;;;;;5.93;2.83;;;7.50;99.80;;;;;;4993914;28;20029;-78
2021/10/14 03:20:12;;;;;;;5.78;3.00;;;7.40;99.90;;;;;;4993243;28;20034;-77
2021/10/14 03:22:38;;;;;;;8.23;3.22;;;7.40;99.90;;;;;;4993560;28;20030;-77
2021/10/14 03:25:04;;;;;;;3.93;2.37;;;7.40;99.90;;;;;;4992815;28;20169;-78
2021/10/14 03:27:30;;;;;;;4.60;2.40;;;7.30;99.90;;;;;;4994836;28;20495;-77
2021/10/14 03:29:55;;;;;;;3.97;2.23;;;7.20;99.90;;;;;;4994614;28;20030;-77
2021/10/14 03:32:21;;;;;;;4.75;2.70;;;7.20;99.90;;;;;;4992535;28;20041;-77
2021/10/14 03:34:47;;;;;;;4.47;2.65;;;7.10;99.90;;;;;;4993434;28;20034;-77
2021/10/14 03:37:12;;;;;;;4.20;2.30;;;7.10;99.90;;;;;;4993718;28;20026;-77
2021/10/14 03:39:38;;;;;;;4.50;2.17;;;7.10;99.90;;;;;;4993236;28;20121;-77
2021/10/14 03:42:04;;;;;;;6.03;2.00;;;7.10;99.90;;;;;;4985701;28;20502;-78
2021/10/14 03:44:29;;;;;;;4.85;2.38;;;7.00;99.90;;;;;;4974423;28;20059;-77
2021/10/14 03:46:55;;;;;;;4.20;2.40;;;7.10;99.90;;;;;;4973912;28;20360;-77
2021/10/14 03:49:20;;;;;;;4.53;2.10;;;7.10;99.90;;;;;;4974570;28;20081;-77
2021/10/14 03:51:46;;;;;;;3.10;2.10;;;7.10;99.90;;;;;;4973870;28;20073;-77
2021/10/14 03:54:12;;;;;;;5.50;2.43;;;7.20;99.90;;;;;;4972959;28;20022;-77
2021/10/14 03:56:37;;;;;;;5.97;2.10;;;7.10;99.90;;;;;;4989915;28;20039;-77
2021/10/14 03:59:03;;;;;;;4.20;2.08;;;7.00;99.90;;;;;;4989762;28;20476;-78
2021/10/14 04:01:29;;;;;;;2.20;1.60;;;7.00;99.90;;;;;;4987857;28;20469;-77
2021/10/14 04:03:55;;;;;;;4.07;2.10;;;7.10;99.90;;;;;;4996779;28;20034;-76
2021/10/14 04:06:20;;;;;;;6.37;2.23;;;7.00;99.90;;;;;;4996305;28;20053;-76
2021/10/14 04:08:46;;;;;;;4.73;1.93;;;7.10;99.90;;;;;;4996826;28;20026;-77
2021/10/14 04:11:12;;;;;;;6.00;1.90;;;7.00;99.90;;;;;;4996703;28;20030;-77
2021/10/14 04:13:37;;;;;;;7.13;2.10;;;7.00;99.90;;;;;;4997220;28;20459;-77
2021/10/14 04:16:03;;;;;;;4.53;2.03;;;7.00;99.80;;;;;;4984519;28;20539;-76
2021/10/14 04:18:29;;;;;;;3.55;1.98;;;7.00;99.90;;;;;;4976567;28;20097;-77
2021/10/14 04:20:54;;;;;;;4.60;2.20;;;7.00;99.80;;;;;;4988937;28;20102;-76
2021/10/14 04:23:20;;;;;;;4.88;2.05;;;7.00;99.80;;;;;;4996604;28;20022;-77
2021/10/14 04:25:46;;;;;;;6.03;2.50;;;6.90;99.90;;;;;;4996690;28;20069;-77
2021/10/14 04:28:12;;;;;;;5.60;2.40;;;6.90;99.90;;;;;;4995995;28;20383;-78
2021/10/14 04:30:38;;;;;;;8.00;3.00;;;6.80;99.90;;;;;;4989189;28;20093;-76
2021/10/14 04:33:04;;;;;;;5.22;2.70;;;6.80;99.90;;;;;;4976957;28;20034;-77
2021/10/14 04:35:30;;;;;;;3.67;2.30;;;6.70;99.90;;;;;;4976778;28;20031;-77
2021/10/14 04:37:56;;;;;;;4.60;2.87;;;6.80;99.90;;;;;;4977070;28;20022;-78
2021/10/14 04:40:21;;;;;;;4.70;2.60;;;6.70;99.90;;;;;;4976114;28;20078;-76
2021/10/14 04:42:47;;;;;;;7.13;3.07;;;6.70;99.90;;;;;;4995494;28;20030;-77
2021/10/14 04:45:13;;;;;;;8.53;3.10;;;6.70;99.90;;;;;;4995634;28;20066;-77
2021/10/14 04:47:39;;;;;;;5.30;2.53;;;6.70;99.90;;;;;;4996167;28;20030;-77
2021/10/14 04:50:07;;;;;;;6.23;2.50;;;6.60;99.90;;;;;;4997519;28;20036;-77
2021/10/14 04:52:33;;;;;;;9.73;3.30;;;6.70;99.90;;;;;;4996200;28;20054;-77
2021/10/14 04:54:58;;;;;;;5.20;2.67;;;6.60;99.90;;;;;;4996326;28;20475;-77
2021/10/14 04:57:24;;;;;;;5.07;2.80;;;6.60;99.90;;;;;;4995721;28;20026;-78
2021/10/14 04:59:50;;;;;;;5.40;2.73;;;6.60;99.90;;;;;;4997349;28;20061;-78
2021/10/14 05:02:15;;;;;;;5.00;2.70;;;6.60;99.90;;;;;;4993208;28;20054;-79
2021/10/14 05:04:41;;;;;;;4.57;2.57;;;6.60;99.90;;;;;;4995308;28;20043;-79
2021/10/14 05:07:06;;;;;;;6.77;2.80;;;6.60;99.90;;;;;;4984302;28;20142;-77
2021/10/14 05:09:32;;;;;;;4.20;2.47;;;6.60;99.90;;;;;;4996772;28;20035;-77
2021/10/14 05:11:59;;;;;;;6.17;2.50;;;6.70;99.90;;;;;;4994604;28;20019;-77
2021/10/14 05:14:24;;;;;;;4.93;2.57;;;6.70;99.90;;;;;;4995405;28;20038;-77
2021/10/14 05:16:50;;;;;;;4.47;2.57;;;6.70;99.90;;;;;;4995079;28;20036;-77
2021/10/14 05:19:16;;;;;;;6.63;2.80;;;6.70;99.90;;;;;;4995255;28;20035;-77
2021/10/14 05:21:42;;;;;;;4.40;2.60;;;6.70;99.90;;;;;;4996646;28;20026;-77
2021/10/14 05:24:07;;;;;;;6.37;3.10;;;6.70;99.90;;;;;;4995742;28;20042;-78
2021/10/14 05:26:33;;;;;;;5.60;2.93;;;6.60;99.90;;;;;;4996130;28;20026;-77
2021/10/14 05:28:59;;;;;;;4.77;2.83;;;6.60;99.90;;;;;;4995596;28;20023;-77
2021/10/14 05:31:26;;;;;;;6.27;2.70;;;6.60;99.90;;;;;;4995250;28;20057;-77
2021/10/14 05:33:54;;;;;;;5.10;2.50;;;6.60;99.90;;;;;;4995146;28;20031;-77
2021/10/14 05:36:19;;;;;;;6.20;3.10;;;6.60;99.90;;;;;;4994913;28;20027;-77
2021/10/14 05:38:45;;;;;;;5.30;2.87;;;6.60;99.90;;;;;;4995334;28;20368;-77
2021/10/14 05:41:11;;;;;;;5.93;3.20;;;6.60;99.90;;;;;;4988257;28;20467;-81
2021/10/14 05:43:37;;;;;;;7.27;3.20;;;6.60;99.90;;;;;;4996134;28;20470;-77
2021/10/14 05:46:02;;;;;;;8.00;3.63;;;6.50;99.90;;;;;;4994761;28;20039;-77
2021/10/14 05:48:28;;;;;;;6.60;3.03;;;6.50;99.90;;;;;;4993277;28;20064;-78
2021/10/14 05:50:54;;;;;;;11.73;3.40;;;6.50;99.90;;;;;;4977942;28;20035;-77
2021/10/14 05:53:19;;;;;;;7.00;3.37;;;6.50;99.90;;;;;;5002347;28;20042;-77
2021/10/14 05:55:45;;;;;;;12.00;3.73;;;6.50;99.90;;;;;;4994191;28;20403;-77
2021/10/14 05:58:11;;;;;;;8.73;4.20;;;6.50;99.90;;;;;;4994920;28;20112;-79
2021/10/14 06:00:37;;;;;;;8.57;3.70;;;6.50;99.90;;;;;;4994959;28;20074;-77
2021/10/14 06:03:02;;;;;;;9.50;4.17;;;6.50;99.90;;;;;;4975973;28;20165;-77
2021/10/14 06:05:28;;;;;;;8.90;3.83;;;6.60;99.90;;;;;;4974509;28;20054;-77
2021/10/14 06:07:53;;;;;;;7.37;3.90;;;6.50;99.90;;;;;;4975536;28;20027;-76
2021/10/14 06:10:19;;;;;;;7.97;4.23;;;6.50;99.90;;;;;;4974705;28;20121;-77
2021/10/14 06:12:45;;;;;;;7.70;4.20;;;6.60;99.90;;;;;;4979424;28;20027;-76
2021/10/14 06:15:11;;;;;;;11.17;4.40;;;6.60;99.90;;;;;;4993045;28;20046;-82
2021/10/14 06:17:36;;;;;;;8.70;4.43;;;6.60;99.90;;;;;;4986092;28;20026;-78
2021/10/14 06:20:04;;;;;;;7.33;4.07;;;6.50;99.90;;;;;;4992726;28;20038;-77
2021/10/14 06:22:29;;;;;;;10.07;4.40;;;6.50;99.90;;;;;;4994887;28;20026;-76
2021/10/14 06:24:55;;;;;;;7.77;4.43;;;6.50;99.90;;;;;;4990271;28;20399;-77
2021/10/14 06:27:20;;;;;;;8.83;4.50;;;6.60;99.90;;;;;;4958328;28;20030;-77
2021/10/14 06:29:46;;;;;;;9.90;4.50;;;6.60;99.90;;;;;;4971064;28;20080;-77
2021/10/14 06:32:12;;;;;;;7.13;4.17;;;6.60;99.90;;;;;;4990419;28;20109;-80
2021/10/14 06:34:37;;;;;;;9.50;4.50;;;6.60;99.90;;;;;;4990836;28;20039;-77
2021/10/14 06:37:03;;;;;;;8.67;4.60;;;6.60;99.90;;;;;;4974348;28;20023;-76
2021/10/14 06:39:29;;;;;;;9.07;4.60;;;6.50;99.90;;;;;;4974101;28;20039;-76
2021/10/14 06:41:55;;;;;;;6.97;4.00;;;6.50;99.90;;;;;;4990545;28;20030;-77
2021/10/14 06:44:21;;;;;;;5.53;3.67;;;6.50;99.90;;;;;;4973497;28;20074;-77
2021/10/14 06:46:47;;;;;;;10.07;4.13;;;6.50;99.90;;;;;;4975924;28;20039;-77
2021/10/14 06:49:13;;;;;;;6.30;3.97;;;6.50;99.90;;;;;;4993662;28;20035;-79
2021/10/14 06:51:38;;;;;;;7.73;3.77;;;6.50;99.90;;;;;;4994313;28;20029;-77
2021/10/14 06:54:04;;;;;;;7.03;3.90;;;6.50;99.90;;;;;;4994505;28;20026;-76
2021/10/14 06:56:30;;;;;;;9.53;3.73;;;6.50;99.90;;;;;;4993342;28;20522;-77
2021/10/14 06:58:55;;;;;;;7.90;3.57;;;6.60;99.90;;;;;;4993333;28;20030;-77
2021/10/14 07:01:21;;;;;;;8.43;3.60;;;6.70;99.90;;;;;;4994367;28;20080;-77
2021/10/14 07:03:47;;;;;;;6.37;3.53;;;6.70;99.90;;;;;;4993725;28;20030;-77
2021/10/14 07:06:14;;;;;;;6.67;3.87;;;6.80;99.90;;;;;;4993229;28;20061;-76
2021/10/14 07:08:40;;;;;;;10.70;4.20;;;6.90;99.90;;;;;;4992777;28;20073;-78
2021/10/14 07:11:05;;;;;;;9.00;4.27;;;6.90;99.90;;;;;;4983068;28;20034;-77
2021/10/14 07:13:31;;;;;;;8.23;4.57;;;7.00;99.90;;;;;;4993419;28;20027;-77
2021/10/14 07:15:58;;;;;;;9.00;4.67;;;7.00;99.90;;;;;;4987313;28;20041;-77
2021/10/14 07:18:24;;;;;;;9.77;4.70;;;7.10;99.90;;;;;;4993276;28;20026;-78
2021/10/14 07:20:50;;;;;;;6.87;4.40;;;7.10;99.90;;;;;;4993033;28;20045;-76
2021/10/14 07:23:16;;;;;;;8.03;4.53;;;7.10;99.90;;;;;;4976353;28;20396;-80
2021/10/14 07:25:44;;;;;;;9.07;4.43;;;7.20;99.90;;;;;;4974123;28;20027;-78
2021/10/14 07:28:11;;;;;;;7.20;4.10;;;7.20;99.90;;;;;;4987913;28;20023;-77
2021/10/14 07:30:38;;;;;;;7.87;4.50;;;7.30;99.90;;;;;;4993293;28;20031;-77
2021/10/14 07:33:04;;;;;;;7.63;4.03;;;7.30;99.90;;;;;;4993431;28;20027;-77
2021/10/14 07:35:34;;;;;;;6.00;4.10;;;7.40;99.90;;;;;;4990652;28;20147;-78
2021/10/14 07:38:02;;;;;;;10.73;4.63;;;7.50;99.90;;;;;;4993412;28;20037;-77
2021/10/14 07:40:29;;;;;;;6.70;3.80;;;7.60;99.90;;;;;;4992732;28;20030;-78
2021/10/14 07:42:54;;;;;;;8.33;4.20;;;7.70;99.90;;;;;;4993623;28;20034;-78
2021/10/14 07:45:20;;;;;;;10.77;4.23;;;7.70;99.90;;;;;;4979111;28;20110;-78
2021/10/14 07:47:46;;;;;;;8.00;4.30;;;7.70;99.90;;;;;;4987500;28;20031;-78
2021/10/14 07:50:12;;;;;;;7.60;4.28;;;7.80;99.90;;;;;;4979589;28;20546;-78
2021/10/14 07:52:38;;;;;;;8.33;4.00;;;7.80;99.90;;;;;;4992191;28;20109;-77
2021/10/14 07:55:05;;;;;;;5.10;3.38;;;7.80;99.90;;;;;;4982002;28;20084;-78
2021/10/14 07:57:30;;;;;;;7.60;4.00;;;7.80;99.90;;;;;;4983707;28;20034;-77
2021/10/14 07:59:56;;;;;;;7.77;3.50;;;7.80;99.90;;;;;;4987175;28;20030;-78
2021/10/14 08:02:21;;;;;;;7.67;4.00;;;7.80;99.90;;;;;;4992977;28;20522;-78
2021/10/14 08:04:48;;;;;;;7.50;3.70;;;7.80;99.90;;;;;;4984941;28;20086;-76
2021/10/14 08:07:13;;;;;;;7.38;4.22;;;7.80;99.90;;;;;;5002447;28;20022;-77
2021/10/14 08:09:39;;;;;;;5.93;3.10;;;7.80;99.90;;;;;;4991934;28;20088;-79
2021/10/14 08:12:05;;;;;;;10.07;4.82;;;7.80;99.90;;;;;;4992686;28;20035;-77
2021/10/14 08:14:30;;;;;;;6.33;3.67;;;7.90;99.90;;;;;;4993112;28;20029;-78
2021/10/14 08:16:56;;;;;;;5.40;2.95;;;7.90;99.90;;;;;;4981661;28;20030;-79
2021/10/14 08:19:21;;;;;;;8.30;3.95;;;8.00;99.90;;;;;;4973364;28;20119;-78
2021/10/14 08:21:47;;;;;;;6.35;3.42;;;8.00;99.90;;;;;;4987479;28;20522;-78
2021/10/14 08:24:13;;;;;;;8.18;4.15;;;8.10;99.90;;;;;;4992822;28;20058;-77
2021/10/14 08:26:38;;;;;;;6.18;3.60;;;8.10;99.90;;;;;;4979636;28;20031;-77
2021/10/14 08:29:04;;;;;;;11.18;3.70;;;8.10;99.90;;;;;;4975266;28;20173;-78
2021/10/14 08:31:29;;;;;;;6.38;3.85;;;8.20;99.90;;;;;;4991198;28;20039;-76
2021/10/14 08:33:55;;;;;;;7.68;3.90;;;8.20;99.90;;;;;;4990218;28;20673;-77
2021/10/14 08:36:21;;;;;;;6.93;3.60;;;8.40;99.90;;;;;;4987024;28;20036;-78
2021/10/14 08:38:49;;;;;;;6.47;3.70;;;8.50;99.90;;;;;;4985517;28;20030;-77
2021/10/14 08:41:19;;;;;;;7.60;3.40;;;8.50;99.40;;;;;;4985700;28;20033;-77
2021/10/14 08:43:47;;;;;;;8.13;3.83;;;8.70;99.30;;;;;;4981429;28;20033;-76
2021/10/14 08:46:12;;;;;;;6.72;3.63;;;8.80;99.20;;;;;;4987732;28;20027;-76
2021/10/14 08:48:38;;;;;;;7.70;3.85;;;8.90;99.30;;;;;;4991111;28;20033;-77
2021/10/14 08:51:04;;;;;;;7.45;3.47;;;9.00;99.30;;;;;;4994600;28;20459;-77
2021/10/14 08:53:30;;;;;;;7.35;3.53;;;9.10;99.00;;;;;;4985049;28;20058;-77
2021/10/14 08:55:56;;;;;;;7.72;3.90;;;9.20;98.60;;;;;;4989646;28;20034;-77
2021/10/14 08:58:22;;;;;;;8.57;4.13;;;9.20;98.80;;;;;;4983895;28;20026;-76
2021/10/14 09:01:07;;;;;;;11.15;4.13;;;9.30;98.60;;;;;;4992693;28;20031;-77
2021/10/14 09:03:36;;;;;;;6.80;3.95;;;9.40;98.30;;;;;;4992525;28;20424;-78
2021/10/14 09:06:10;;;;;;;10.50;4.38;;;9.40;98.20;;;;;;4991744;28;20123;-79
2021/10/14 09:08:45;;;;;;;7.65;3.97;;;9.40;98.40;;;;;;4990484;28;20038;-76
2021/10/14 09:11:16;;;;;;;8.10;3.70;;;9.40;98.40;;;;;;4983666;28;20496;-77
2021/10/14 09:13:57;;;;;;;8.50;4.30;;;9.50;98.40;;;;;;4996279;28;20030;-76
2021/10/14 09:16:35;;;;;;;7.00;3.80;;;9.50;98.50;;;;;;4994006;28;20046;-77
2021/10/14 09:19:14;;;;;;;7.30;3.55;;;9.60;98.40;;;;;;4985767;28;20383;-77
2021/10/14 09:21:44;;;;;;;7.82;3.50;;;9.70;97.80;;;;;;4994853;28;20117;-79
2021/10/14 09:24:36;;;;;;;8.43;3.50;;;9.70;97.90;;;;;;4989328;28;20126;-81
2021/10/14 09:27:08;;;;;;;6.60;3.58;;;9.90;98.10;;;;;;4980483;28;20058;-78
2021/10/14 09:29:37;;;;;;;6.00;3.55;;;9.90;97.50;;;;;;4986708;28;20043;-79
2021/10/14 09:32:15;;;;;;;8.85;3.88;;;10.00;97.40;;;;;;4991107;28;20050;-77
2021/10/14 09:34:50;;;;;;;5.53;3.28;;;10.10;97.30;;;;;;4989507;28;20037;-77
2021/10/14 09:37:16;;;;;;;6.93;3.92;;;10.20;97.40;;;;;;4987280;28;20026;-79
2021/10/14 09:40:04;;;;;;;5.93;3.53;;;10.30;97.50;;;;;;4983329;28;20090;-78
2021/10/14 09:42:41;;;;;;;7.20;3.47;;;10.50;97.40;;;;;;4994186;28;20054;-80
2021/10/14 09:45:20;;;;;;;5.82;3.47;;;10.50;96.90;;;;;;4984299;28;20035;-75
2021/10/14 09:48:05;;;;;;;5.40;2.75;;;10.50;96.20;;;;;;4981335;28;20100;-76
2021/10/14 09:50:42;;;;;;;8.80;3.85;;;10.50;96.00;;;;;;4990781;28;20049;-75
2021/10/14 09:53:14;;;;;;;6.75;3.28;;;10.60;96.20;;;;;;4985790;28;20379;-77
2021/10/14 09:55:41;;;;;;;7.55;3.45;;;10.60;96.20;;;;;;5001824;28;20256;-77
2021/10/14 09:58:07;;;;;;;6.82;3.28;;;10.60;96.40;;;;;;4977768;28;20043;-76
2021/10/14 10:00:33;;;;;;;6.45;3.10;;;10.70;96.30;;;;;;4978656;28;20394;-78
2021/10/14 10:03:00;;;;;;;9.52;3.60;;;10.80;96.30;;;;;;4990893;28;20675;-79
2021/10/14 10:05:27;;;;;;;7.22;3.65;;;10.80;96.30;;;;;;4981001;28;20062;-78
2021/10/14 10:07:53;;;;;;;7.03;3.20;;;10.90;96.50;;;;;;4992500;28;20471;-78
2021/10/14 10:10:22;;;;;;;6.88;2.65;;;11.00;96.30;;;;;;4994737;28;20030;-80
2021/10/14 10:12:50;;;;;;;7.07;3.13;;;11.20;96.30;;;;;;5005317;28;20063;-78
2021/10/14 10:15:36;;;;;;;7.80;3.20;;;11.20;96.00;;;;;;4997017;28;20038;-77
2021/10/14 10:18:01;;;;;;;8.38;3.22;;;11.30;95.60;;;;;;4989021;28;20046;-78
2021/10/14 10:20:39;;;;;;;7.95;2.65;;;11.30;95.50;;;;;;4990142;28;20464;-78
2021/10/14 10:23:05;;;;;;;6.63;3.20;;;11.40;95.00;;;;;;4988530;28;20026;-77
2021/10/14 10:25:30;;;;;;;7.70;3.40;;;11.50;95.30;;;;;;4977662;28;20031;-77
2021/10/14 10:27:58;;;;;;;7.40;2.58;;;11.60;94.50;;;;;;4979600;28;20077;-75
2021/10/14 10:30:34;;;;;;;8.55;3.15;;;11.70;94.40;;;;;;4994046;28;20105;-76
2021/10/14 10:33:01;;;;;;;6.20;2.72;;;11.80;94.60;;;;;;4990046;28;20121;-76
2021/10/14 10:35:48;;;;;;;9.02;2.63;;;11.70;94.30;;;;;;5004689;28;20061;-76
2021/10/14 10:38:21;;;;;;;5.05;1.83;;;11.80;94.00;;;;;;4993136;28;20019;-77
2021/10/14 10:40:49;;;;;;;4.78;2.40;;;11.80;93.90;;;;;;4979936;28;20098;-76
2021/10/14 10:43:26;;;;;;;5.65;2.13;;;11.80;93.90;;;;;;4988666;28;20445;-76
2021/10/14 10:45:56;;;;;;;6.80;2.25;;;11.90;93.40;;;;;;4994196;28;20033;-76
2021/10/14 10:48:40;;;;;;;6.05;2.47;;;12.00;93.60;;;;;;4993998;28;20034;-76
2021/10/14 10:51:07;;;;;;;5.30;2.22;;;12.00;93.00;;;;;;4994500;28;20113;-77
2021/10/14 10:53:45;;;;;;;7.53;2.53;;;12.10;93.20;;;;;;4993665;28;20034;-77
2021/10/14 10:56:28;;;;;;;6.15;2.05;;;12.10;93.20;;;;;;4988984;28;20026;-76
2021/10/14 10:58:54;;;;;;;6.75;2.30;;;12.10;93.10;;;;;;4984101;28;20198;-77
2021/10/14 11:01:20;;;;;;;6.22;2.35;;;12.20;93.10;;;;;;4987595;28;20030;-80
2021/10/14 11:03:51;;;;;;;5.32;2.22;;;12.30;92.90;;;;;;4975483;28;20085;-79
2021/10/14 11:06:17;;;;;;;6.97;2.35;;;12.30;92.80;;;;;;4989018;28;20054;-77
2021/10/14 11:08:43;;;;;;;5.57;2.08;;;12.40;92.90;;;;;;4982368;28;20545;-78
2021/10/14 11:11:11;;;;;;;6.50;2.33;;;12.40;92.70;;;;;;4980116;28;20035;-76
2021/10/14 11:13:40;;;;;;;5.10;2.38;;;12.40;92.30;;;;;;4990007;28;20037;-77
2021/10/14 11:16:07;;;;;;;5.72;2.35;;;12.40;92.00;;;;;;4988359;28;20082;-77
2021/10/14 11:18:35;;;;;;;6.20;1.95;;;12.50;91.60;;;;;;4973812;28;20380;-76
2021/10/14 11:21:13;;;;;;;6.82;2.58;;;12.60;91.80;;;;;;4980213;28;20049;-77
2021/10/14 11:23:45;;;;;;;5.13;1.80;;;12.70;91.40;;;;;;4993078;28;20026;-77
2021/10/14 11:26:21;;;;;;;4.30;1.77;;;12.80;91.70;;;;;;4981410;28;20387;-77
2021/10/14 11:28:53;;;;;;;5.80;1.58;;;12.80;91.40;;;;;;4993473;28;20022;-77
2021/10/14 11:31:37;;;;;;;3.60;1.85;;;12.80;91.50;;;;;;4987727;28;20026;-77
2021/10/14 11:34:24;;;;;;;4.40;2.20;;;12.90;91.50;;;;;;4981604;28;20129;-78
2021/10/14 11:37:03;;;;;;;3.85;2.00;;;12.90;91.60;;;;;;4986211;28;20034;-78
2021/10/14 11:39:37;;;;;;;5.53;1.60;;;13.00;91.50;;;;;;4985033;28;20031;-78
2021/10/14 11:42:15;;;;;;;4.38;1.75;;;13.10;91.00;;;;;;4989699;28;20022;-78
2021/10/14 11:44:47;;;;;;;3.75;1.75;;;13.20;90.60;;;;;;4984492;28;20077;-78
2021/10/14 11:47:18;;;;;;;4.03;1.55;;;13.20;90.60;;;;;;4987144;28;20028;-78
2021/10/14 11:49:44;;;;;;;3.50;1.67;;;13.40;90.60;;;;;;4988484;28;20086;-77
2021/10/14 11:52:12;;;;;;;4.93;1.60;;;13.50;90.20;;;;;;4990251;28;20295;-76
2021/10/14 11:54:39;;;;;;;4.18;1.75;;;13.60;90.30;;;;;;4983160;28;20081;-77
2021/10/14 11:57:06;;;;;;;5.03;1.67;;;13.70;90.60;;;;;;4994628;28;20031;-76
2021/10/14 11:59:33;;;;;;;3.80;1.90;;;13.70;89.80;;;;;;4988532;28;20085;-76
2021/10/14 12:02:02;;;;;;;5.68;2.05;;;13.70;89.30;;;;;;4993662;28;20101;-76
2021/10/14 12:04:40;;;;;;;2.45;1.67;;;13.90;89.40;;;;;;4993033;28;20080;-76
2021/10/14 12:07:07;;;;;;;5.38;1.70;;;14.00;89.10;;;;;;4992260;28;20050;-77
2021/10/14 12:09:35;;;;;;;2.58;1.35;;;14.00;87.50;;;;;;4993298;28;20037;-78
2021/10/14 12:12:03;;;;;;;5.35;2.33;;;14.00;87.60;;;;;;4988485;28;20468;-77
2021/10/14 12:14:29;;;;;;;5.53;1.13;;;14.20;86.70;;;;;;4981019;28;20057;-77
2021/10/14 12:17:16;;;;;;;3.00;1.20;;;14.20;85.80;;;;;;4989880;28;20396;-77
2021/10/14 12:19:43;;;;;;;3.50;1.42;;;14.50;85.90;;;;;;4974415;28;20039;-77
2021/10/14 12:22:12;;;;;;;2.17;1.17;;;14.70;83.90;;;;;;4983813;28;20113;-77
2021/10/14 12:24:59;;;;;;;2.97;1.30;;;14.90;83.30;;;;;;4993514;28;20356;-76
2021/10/14 12:27:45;;;;;;;5.57;1.52;;;15.00;80.90;;;;;;4989832;28;20081;-77
2021/10/14 12:30:30;;;;;;;3.90;1.40;;;15.20;81.60;;;;;;4989486;28;20034;-84
2021/10/14 12:33:17;;;;;;;4.60;1.55;;;15.40;81.90;;;;;;5006198;28;20463;-79
2021/10/14 12:35:55;;;;;;;5.32;1.27;;;15.50;82.00;;;;;;4981031;28;20047;-80
2021/10/14 12:38:21;;;;;;;3.47;1.15;;;15.60;79.80;;;;;;4997956;28;20026;-80
2021/10/14 12:41:02;;;;;;;2.60;1.20;;;15.80;80.80;;;;;;4986019;28;20031;-81
2021/10/14 12:43:38;;;;;;;4.95;1.63;;;16.00;80.10;;;;;;4976888;28;20027;-80
2021/10/14 12:46:33;;;;;;;3.22;1.60;;;16.10;79.00;;;;;;4993300;28;20027;-80
2021/10/14 12:51:51;;;;;;;3.45;1.23;;;16.10;78.10;;;;;;4997388;28;20026;-80
2021/10/14 12:54:19;;;;;;;5.40;1.38;;;16.00;78.90;;;;;;4990188;28;20029;-80
2021/10/14 12:56:50;;;;;;;3.03;1.10;;;16.10;78.10;;;;;;4982848;28;20023;-79
2021/10/14 12:59:17;;;;;;;3.22;1.33;;;16.40;77.50;;;;;;4992905;28;20069;-80